sensor_id;sensor_type;location;lat;lon;timestamp;P1;durP1;ratioP1;P2;durP2;ratioP2
66739;SDS011;53653;52.188;8.602;2022-12-18T00:02:15;36.63;;;14.93;;
66739;SDS011;53653;52.188;8.602;2022-12-18T00:04:40;38.77;;;15.47;;
66739;SDS011;53653;52.188;8.602;2022-12-18T00:07:06;38.40;;;14.27;;
66739;SDS011;53653;52.188;8.602;2022-12-18T00:09:32;37.33;;;15.20;;
66739;SDS011;53653;52.188;8.602;2022-12-18T00:11:57;33.70;;;14.47;;
66739;SDS011;53653;52.188;8.602;2022-12-18T00:14:23;31.08;;;12.73;;
66739;SDS011;53653;52.188;8.602;2022-12-18T00:16:48;31.97;;;11.63;;
66739;SDS011;53653;52.188;8.602;2022-12-18T00:19:14;22.87;;;11.53;;
66739;SDS011;53653;52.188;8.602;2022-12-18T00:21:40;47.75;;;19.88;;
66739;SDS011;53653;52.188;8.602;2022-12-18T00:24:08;61.03;;;26.42;;
66739;SDS011;53653;52.188;8.602;2022-12-18T00:26:34;57.03;;;23.53;;
66739;SDS011;53653;52.188;8.602;2022-12-18T00:29:06;68.43;;;29.42;;
66739;SDS011;53653;52.188;8.602;2022-12-18T00:31:35;73.70;;;30.42;;
66739;SDS011;53653;52.188;8.602;2022-12-18T00:34:01;68.50;;;29.77;;
66739;SDS011;53653;52.188;8.602;2022-12-18T00:36:28;64.22;;;27.10;;
66739;SDS011;53653;52.188;8.602;2022-12-18T00:38:57;60.17;;;26.03;;
66739;SDS011;53653;52.188;8.602;2022-12-18T00:41:23;68.63;;;28.33;;
66739;SDS011;53653;52.188;8.602;2022-12-18T00:44:09;56.20;;;23.42;;
66739;SDS011;53653;52.188;8.602;2022-12-18T00:46:36;58.28;;;24.63;;
66739;SDS011;53653;52.188;8.602;2022-12-18T00:49:01;58.33;;;25.20;;
66739;SDS011;53653;52.188;8.602;2022-12-18T00:51:28;53.80;;;24.50;;
66739;SDS011;53653;52.188;8.602;2022-12-18T00:53:53;60.93;;;26.60;;
66739;SDS011;53653;52.188;8.602;2022-12-18T00:56:22;69.97;;;27.60;;
66739;SDS011;53653;52.188;8.602;2022-12-18T00:58:48;53.67;;;25.13;;
66739;SDS011;53653;52.188;8.602;2022-12-18T01:01:14;58.40;;;25.20;;
66739;SDS011;53653;52.188;8.602;2022-12-18T01:03:40;53.33;;;23.27;;
66739;SDS011;53653;52.188;8.602;2022-12-18T01:06:09;47.57;;;19.43;;
66739;SDS011;53653;52.188;8.602;2022-12-18T01:08:36;53.50;;;20.75;;
66739;SDS011;53653;52.188;8.602;2022-12-18T01:11:09;48.95;;;21.13;;
66739;SDS011;53653;52.188;8.602;2022-12-18T01:13:37;48.57;;;20.57;;
66739;SDS011;53653;52.188;8.602;2022-12-18T01:16:03;65.80;;;28.27;;
66739;SDS011;53653;52.188;8.602;2022-12-18T01:18:29;75.18;;;28.35;;
66739;SDS011;53653;52.188;8.602;2022-12-18T01:20:56;64.25;;;27.67;;
66739;SDS011;53653;52.188;8.602;2022-12-18T01:23:22;65.53;;;26.63;;
66739;SDS011;53653;52.188;8.602;2022-12-18T01:25:48;64.90;;;26.40;;
66739;SDS011;53653;52.188;8.602;2022-12-18T01:28:13;58.30;;;24.30;;
66739;SDS011;53653;52.188;8.602;2022-12-18T01:30:39;63.13;;;25.90;;
66739;SDS011;53653;52.188;8.602;2022-12-18T01:33:05;42.37;;;19.20;;
66739;SDS011;53653;52.188;8.602;2022-12-18T01:35:30;58.00;;;25.03;;
66739;SDS011;53653;52.188;8.602;2022-12-18T01:37:56;57.72;;;24.60;;
66739;SDS011;53653;52.188;8.602;2022-12-18T01:40:22;57.13;;;24.20;;
66739;SDS011;53653;52.188;8.602;2022-12-18T01:42:53;64.78;;;25.88;;
66739;SDS011;53653;52.188;8.602;2022-12-18T01:47:51;59.85;;;22.73;;
66739;SDS011;53653;52.188;8.602;2022-12-18T01:50:32;43.20;;;17.38;;
66739;SDS011;53653;52.188;8.602;2022-12-18T01:53:03;49.17;;;19.60;;
66739;SDS011;53653;52.188;8.602;2022-12-18T01:55:34;52.53;;;20.75;;
66739;SDS011;53653;52.188;8.602;2022-12-18T01:58:03;48.25;;;17.77;;
66739;SDS011;53653;52.188;8.602;2022-12-18T02:00:29;32.47;;;15.40;;
66739;SDS011;53653;52.188;8.602;2022-12-18T02:02:55;46.15;;;19.88;;
66739;SDS011;53653;52.188;8.602;2022-12-18T02:13:56;57.57;;;22.03;;
66739;SDS011;53653;52.188;8.602;2022-12-18T02:27:54;42.33;;;18.43;;
66739;SDS011;53653;52.188;8.602;2022-12-18T02:30:23;51.10;;;20.92;;
66739;SDS011;53653;52.188;8.602;2022-12-18T02:32:49;49.95;;;20.70;;
66739;SDS011;53653;52.188;8.602;2022-12-18T02:35:19;52.03;;;19.47;;
66739;SDS011;53653;52.188;8.602;2022-12-18T02:37:54;51.63;;;22.42;;
66739;SDS011;53653;52.188;8.602;2022-12-18T02:40:20;50.03;;;22.67;;
66739;SDS011;53653;52.188;8.602;2022-12-18T02:42:49;45.80;;;18.20;;
66739;SDS011;53653;52.188;8.602;2022-12-18T02:45:17;40.47;;;18.17;;
66739;SDS011;53653;52.188;8.602;2022-12-18T02:47:43;46.67;;;17.77;;
66739;SDS011;53653;52.188;8.602;2022-12-18T02:50:21;48.42;;;18.23;;
66739;SDS011;53653;52.188;8.602;2022-12-18T02:53:03;48.10;;;18.40;;
66739;SDS011;53653;52.188;8.602;2022-12-18T03:01:38;41.43;;;17.50;;
66739;SDS011;53653;52.188;8.602;2022-12-18T03:04:14;36.92;;;15.95;;
66739;SDS011;53653;52.188;8.602;2022-12-18T03:06:47;41.08;;;15.68;;
66739;SDS011;53653;52.188;8.602;2022-12-18T03:09:17;47.05;;;15.15;;
66739;SDS011;53653;52.188;8.602;2022-12-18T03:11:50;37.08;;;16.35;;
66739;SDS011;53653;52.188;8.602;2022-12-18T03:14:39;46.10;;;17.20;;
66739;SDS011;53653;52.188;8.602;2022-12-18T03:17:09;47.38;;;18.05;;
66739;SDS011;53653;52.188;8.602;2022-12-18T03:19:42;49.90;;;18.05;;
66739;SDS011;53653;52.188;8.602;2022-12-18T03:22:10;41.65;;;16.92;;
66739;SDS011;53653;52.188;8.602;2022-12-18T03:24:42;26.83;;;11.70;;
66739;SDS011;53653;52.188;8.602;2022-12-18T03:27:11;33.67;;;13.60;;
66739;SDS011;53653;52.188;8.602;2022-12-18T03:29:40;39.78;;;17.13;;
66739;SDS011;53653;52.188;8.602;2022-12-18T03:32:31;43.45;;;18.90;;
66739;SDS011;53653;52.188;8.602;2022-12-18T03:35:03;43.88;;;16.10;;
66739;SDS011;53653;52.188;8.602;2022-12-18T03:37:34;35.47;;;16.80;;
66739;SDS011;53653;52.188;8.602;2022-12-18T03:39:59;39.13;;;16.23;;
66739;SDS011;53653;52.188;8.602;2022-12-18T03:42:31;27.63;;;14.77;;
66739;SDS011;53653;52.188;8.602;2022-12-18T03:45:12;40.00;;;18.55;;
66739;SDS011;53653;52.188;8.602;2022-12-18T03:50:49;39.35;;;17.85;;
66739;SDS011;53653;52.188;8.602;2022-12-18T03:53:28;44.37;;;20.73;;
66739;SDS011;53653;52.188;8.602;2022-12-18T03:55:58;38.72;;;18.02;;
66739;SDS011;53653;52.188;8.602;2022-12-18T03:58:31;43.45;;;19.35;;
66739;SDS011;53653;52.188;8.602;2022-12-18T04:01:12;37.22;;;17.85;;
66739;SDS011;53653;52.188;8.602;2022-12-18T04:03:42;39.03;;;16.83;;
66739;SDS011;53653;52.188;8.602;2022-12-18T04:06:08;43.07;;;18.70;;
66739;SDS011;53653;52.188;8.602;2022-12-18T04:08:36;43.03;;;18.55;;
66739;SDS011;53653;52.188;8.602;2022-12-18T04:11:05;41.25;;;18.08;;
66739;SDS011;53653;52.188;8.602;2022-12-18T04:13:33;43.08;;;18.38;;
66739;SDS011;53653;52.188;8.602;2022-12-18T04:16:04;39.05;;;15.95;;
66739;SDS011;53653;52.188;8.602;2022-12-18T04:18:31;33.53;;;16.73;;
66739;SDS011;53653;52.188;8.602;2022-12-18T04:20:58;36.90;;;18.58;;
66739;SDS011;53653;52.188;8.602;2022-12-18T04:23:24;40.25;;;16.20;;
66739;SDS011;53653;52.188;8.602;2022-12-18T04:25:52;42.43;;;18.40;;
66739;SDS011;53653;52.188;8.602;2022-12-18T04:28:31;49.67;;;19.75;;
66739;SDS011;53653;52.188;8.602;2022-12-18T04:30:56;40.15;;;19.83;;
66739;SDS011;53653;52.188;8.602;2022-12-18T04:33:22;36.33;;;15.87;;
66739;SDS011;53653;52.188;8.602;2022-12-18T04:35:47;33.60;;;15.37;;
66739;SDS011;53653;52.188;8.602;2022-12-18T04:38:13;31.27;;;13.20;;
66739;SDS011;53653;52.188;8.602;2022-12-18T04:40:39;45.07;;;19.27;;
66739;SDS011;53653;52.188;8.602;2022-12-18T04:43:11;38.95;;;16.92;;
66739;SDS011;53653;52.188;8.602;2022-12-18T04:45:36;40.23;;;17.20;;
66739;SDS011;53653;52.188;8.602;2022-12-18T04:48:02;41.83;;;18.77;;
66739;SDS011;53653;52.188;8.602;2022-12-18T04:50:29;42.05;;;17.98;;
66739;SDS011;53653;52.188;8.602;2022-12-18T04:52:54;37.77;;;17.03;;
66739;SDS011;53653;52.188;8.602;2022-12-18T04:55:20;38.45;;;16.15;;
66739;SDS011;53653;52.188;8.602;2022-12-18T04:57:52;41.47;;;17.02;;
66739;SDS011;53653;52.188;8.602;2022-12-18T05:00:18;35.37;;;16.87;;
66739;SDS011;53653;52.188;8.602;2022-12-18T05:02:44;45.47;;;18.00;;
66739;SDS011;53653;52.188;8.602;2022-12-18T05:05:09;42.77;;;17.77;;
66739;SDS011;53653;52.188;8.602;2022-12-18T05:07:35;41.00;;;17.27;;
66739;SDS011;53653;52.188;8.602;2022-12-18T05:10:00;36.97;;;15.90;;
66739;SDS011;53653;52.188;8.602;2022-12-18T05:12:26;43.80;;;17.30;;
66739;SDS011;53653;52.188;8.602;2022-12-18T05:14:52;37.93;;;15.80;;
66739;SDS011;53653;52.188;8.602;2022-12-18T05:17:17;41.93;;;17.07;;
66739;SDS011;53653;52.188;8.602;2022-12-18T05:19:43;38.58;;;16.65;;
66739;SDS011;53653;52.188;8.602;2022-12-18T05:22:08;38.90;;;16.03;;
66739;SDS011;53653;52.188;8.602;2022-12-18T05:24:34;36.80;;;15.50;;
66739;SDS011;53653;52.188;8.602;2022-12-18T05:26:59;40.67;;;16.38;;
66739;SDS011;53653;52.188;8.602;2022-12-18T05:29:25;40.73;;;15.93;;
66739;SDS011;53653;52.188;8.602;2022-12-18T05:31:50;41.17;;;17.63;;
66739;SDS011;53653;52.188;8.602;2022-12-18T05:34:16;38.72;;;17.67;;
66739;SDS011;53653;52.188;8.602;2022-12-18T05:36:42;34.10;;;13.90;;
66739;SDS011;53653;52.188;8.602;2022-12-18T05:39:07;37.70;;;17.07;;
66739;SDS011;53653;52.188;8.602;2022-12-18T05:41:32;42.27;;;19.40;;
66739;SDS011;53653;52.188;8.602;2022-12-18T05:43:58;43.97;;;17.00;;
66739;SDS011;53653;52.188;8.602;2022-12-18T05:46:24;35.80;;;16.43;;
66739;SDS011;53653;52.188;8.602;2022-12-18T05:48:50;37.83;;;17.03;;
66739;SDS011;53653;52.188;8.602;2022-12-18T05:51:16;42.20;;;18.17;;
66739;SDS011;53653;52.188;8.602;2022-12-18T05:53:44;44.28;;;17.25;;
66739;SDS011;53653;52.188;8.602;2022-12-18T05:56:11;33.63;;;15.23;;
66739;SDS011;53653;52.188;8.602;2022-12-18T05:58:39;36.70;;;17.17;;
66739;SDS011;53653;52.188;8.602;2022-12-18T06:01:06;39.83;;;16.05;;
66739;SDS011;53653;52.188;8.602;2022-12-18T06:03:33;24.98;;;14.05;;
66739;SDS011;53653;52.188;8.602;2022-12-18T06:05:59;36.63;;;16.13;;
66739;SDS011;53653;52.188;8.602;2022-12-18T06:08:24;32.40;;;14.80;;
66739;SDS011;53653;52.188;8.602;2022-12-18T06:10:51;29.53;;;14.83;;
66739;SDS011;53653;52.188;8.602;2022-12-18T06:13:17;40.58;;;17.83;;
66739;SDS011;53653;52.188;8.602;2022-12-18T06:15:43;35.38;;;16.55;;
66739;SDS011;53653;52.188;8.602;2022-12-18T06:18:09;35.67;;;14.77;;
66739;SDS011;53653;52.188;8.602;2022-12-18T06:20:34;30.77;;;13.93;;
66739;SDS011;53653;52.188;8.602;2022-12-18T06:23:01;33.57;;;15.67;;
66739;SDS011;53653;52.188;8.602;2022-12-18T06:25:27;39.03;;;18.17;;
66739;SDS011;53653;52.188;8.602;2022-12-18T06:27:52;36.77;;;16.27;;
66739;SDS011;53653;52.188;8.602;2022-12-18T06:30:18;49.07;;;19.67;;
66739;SDS011;53653;52.188;8.602;2022-12-18T06:32:43;40.47;;;17.38;;
66739;SDS011;53653;52.188;8.602;2022-12-18T06:35:09;45.83;;;16.90;;
66739;SDS011;53653;52.188;8.602;2022-12-18T06:37:35;42.13;;;18.38;;
66739;SDS011;53653;52.188;8.602;2022-12-18T06:40:00;46.57;;;17.23;;
66739;SDS011;53653;52.188;8.602;2022-12-18T06:42:26;42.13;;;18.33;;
66739;SDS011;53653;52.188;8.602;2022-12-18T06:44:51;44.45;;;18.85;;
66739;SDS011;53653;52.188;8.602;2022-12-18T06:47:17;36.23;;;17.63;;
66739;SDS011;53653;52.188;8.602;2022-12-18T06:49:43;37.97;;;17.02;;
66739;SDS011;53653;52.188;8.602;2022-12-18T06:52:08;38.83;;;17.53;;
66739;SDS011;53653;52.188;8.602;2022-12-18T06:54:34;36.90;;;19.60;;
66739;SDS011;53653;52.188;8.602;2022-12-18T06:56:59;45.60;;;18.70;;
66739;SDS011;53653;52.188;8.602;2022-12-18T06:59:25;45.17;;;19.33;;
66739;SDS011;53653;52.188;8.602;2022-12-18T07:01:50;47.10;;;20.83;;
66739;SDS011;53653;52.188;8.602;2022-12-18T07:04:16;45.63;;;18.93;;
66739;SDS011;53653;52.188;8.602;2022-12-18T07:06:41;40.40;;;18.97;;
66739;SDS011;53653;52.188;8.602;2022-12-18T07:09:07;24.10;;;11.05;;
66739;SDS011;53653;52.188;8.602;2022-12-18T07:11:32;31.43;;;15.77;;
66739;SDS011;53653;52.188;8.602;2022-12-18T07:13:58;33.97;;;15.52;;
66739;SDS011;53653;52.188;8.602;2022-12-18T07:16:23;47.77;;;20.37;;
66739;SDS011;53653;52.188;8.602;2022-12-18T07:18:49;43.83;;;20.10;;
66739;SDS011;53653;52.188;8.602;2022-12-18T07:21:16;33.88;;;15.10;;
66739;SDS011;53653;52.188;8.602;2022-12-18T07:23:44;45.60;;;21.55;;
66739;SDS011;53653;52.188;8.602;2022-12-18T07:26:13;43.93;;;19.03;;
66739;SDS011;53653;52.188;8.602;2022-12-18T07:28:40;44.22;;;18.65;;
66739;SDS011;53653;52.188;8.602;2022-12-18T07:31:14;40.83;;;20.13;;
66739;SDS011;53653;52.188;8.602;2022-12-18T07:33:42;37.58;;;17.10;;
66739;SDS011;53653;52.188;8.602;2022-12-18T07:36:08;27.13;;;12.50;;
66739;SDS011;53653;52.188;8.602;2022-12-18T07:38:35;42.43;;;15.97;;
66739;SDS011;53653;52.188;8.602;2022-12-18T07:41:01;32.78;;;12.75;;
66739;SDS011;53653;52.188;8.602;2022-12-18T07:43:27;46.75;;;17.25;;
66739;SDS011;53653;52.188;8.602;2022-12-18T07:45:53;27.87;;;12.63;;
66739;SDS011;53653;52.188;8.602;2022-12-18T07:48:19;41.63;;;17.50;;
66739;SDS011;53653;52.188;8.602;2022-12-18T07:50:44;35.83;;;15.57;;
66739;SDS011;53653;52.188;8.602;2022-12-18T07:53:10;12.32;;;7.45;;
66739;SDS011;53653;52.188;8.602;2022-12-18T07:55:36;36.67;;;17.10;;
66739;SDS011;53653;52.188;8.602;2022-12-18T07:58:04;27.23;;;12.70;;
66739;SDS011;53653;52.188;8.602;2022-12-18T08:00:30;38.30;;;17.15;;
66739;SDS011;53653;52.188;8.602;2022-12-18T08:02:56;24.23;;;12.73;;
66739;SDS011;53653;52.188;8.602;2022-12-18T08:05:22;41.75;;;15.23;;
66739;SDS011;53653;52.188;8.602;2022-12-18T08:07:48;33.30;;;14.70;;
66739;SDS011;53653;52.188;8.602;2022-12-18T08:10:13;33.37;;;14.43;;
66739;SDS011;53653;52.188;8.602;2022-12-18T08:12:39;22.03;;;10.70;;
66739;SDS011;53653;52.188;8.602;2022-12-18T08:15:05;35.30;;;12.88;;
66739;SDS011;53653;52.188;8.602;2022-12-18T08:17:31;33.78;;;15.38;;
66739;SDS011;53653;52.188;8.602;2022-12-18T08:19:57;31.40;;;12.70;;
66739;SDS011;53653;52.188;8.602;2022-12-18T08:22:22;32.00;;;14.70;;
66739;SDS011;53653;52.188;8.602;2022-12-18T08:24:48;37.70;;;17.97;;
66739;SDS011;53653;52.188;8.602;2022-12-18T08:27:14;39.28;;;16.70;;
66739;SDS011;53653;52.188;8.602;2022-12-18T08:29:39;36.30;;;16.67;;
66739;SDS011;53653;52.188;8.602;2022-12-18T08:32:05;34.22;;;15.48;;
66739;SDS011;53653;52.188;8.602;2022-12-18T08:34:31;38.27;;;18.60;;
66739;SDS011;53653;52.188;8.602;2022-12-18T08:36:56;42.03;;;19.23;;
66739;SDS011;53653;52.188;8.602;2022-12-18T08:39:22;45.00;;;19.80;;
66739;SDS011;53653;52.188;8.602;2022-12-18T08:41:47;43.67;;;20.73;;
66739;SDS011;53653;52.188;8.602;2022-12-18T08:44:33;37.15;;;18.98;;
66739;SDS011;53653;52.188;8.602;2022-12-18T08:47:05;44.65;;;19.77;;
66739;SDS011;53653;52.188;8.602;2022-12-18T08:49:32;34.40;;;16.90;;
66739;SDS011;53653;52.188;8.602;2022-12-18T08:51:59;34.33;;;17.03;;
66739;SDS011;53653;52.188;8.602;2022-12-18T08:54:25;36.22;;;16.10;;
66739;SDS011;53653;52.188;8.602;2022-12-18T08:56:51;37.63;;;17.67;;
66739;SDS011;53653;52.188;8.602;2022-12-18T08:59:17;26.93;;;13.80;;
66739;SDS011;53653;52.188;8.602;2022-12-18T09:01:44;36.03;;;17.73;;
66739;SDS011;53653;52.188;8.602;2022-12-18T09:04:10;40.20;;;15.82;;
66739;SDS011;53653;52.188;8.602;2022-12-18T09:06:36;32.33;;;13.30;;
66739;SDS011;53653;52.188;8.602;2022-12-18T09:09:02;40.85;;;17.48;;
66739;SDS011;53653;52.188;8.602;2022-12-18T09:11:29;34.70;;;14.75;;
66739;SDS011;53653;52.188;8.602;2022-12-18T09:13:56;32.22;;;16.05;;
66739;SDS011;53653;52.188;8.602;2022-12-18T09:16:23;39.30;;;19.15;;
66739;SDS011;53653;52.188;8.602;2022-12-18T09:18:50;26.70;;;13.63;;
66739;SDS011;53653;52.188;8.602;2022-12-18T09:21:17;36.97;;;16.00;;
66739;SDS011;53653;52.188;8.602;2022-12-18T09:23:48;36.08;;;16.33;;
66739;SDS011;53653;52.188;8.602;2022-12-18T09:26:15;34.70;;;15.18;;
66739;SDS011;53653;52.188;8.602;2022-12-18T09:28:40;40.87;;;16.73;;
66739;SDS011;53653;52.188;8.602;2022-12-18T09:31:08;34.67;;;15.87;;
66739;SDS011;53653;52.188;8.602;2022-12-18T09:33:35;38.58;;;16.92;;
66739;SDS011;53653;52.188;8.602;2022-12-18T09:36:02;42.45;;;18.13;;
66739;SDS011;53653;52.188;8.602;2022-12-18T09:38:31;43.08;;;17.67;;
66739;SDS011;53653;52.188;8.602;2022-12-18T09:41:44;43.67;;;18.67;;
66739;SDS011;53653;52.188;8.602;2022-12-18T09:43:47;42.70;;;18.57;;
66739;SDS011;53653;52.188;8.602;2022-12-18T09:46:23;38.97;;;18.77;;
66739;SDS011;53653;52.188;8.602;2022-12-18T09:48:52;38.00;;;17.73;;
66739;SDS011;53653;52.188;8.602;2022-12-18T09:51:24;43.08;;;18.60;;
66739;SDS011;53653;52.188;8.602;2022-12-18T09:53:59;48.42;;;20.13;;
66739;SDS011;53653;52.188;8.602;2022-12-18T09:56:31;44.40;;;17.80;;
66739;SDS011;53653;52.188;8.602;2022-12-18T09:59:03;48.33;;;18.70;;
66739;SDS011;53653;52.188;8.602;2022-12-18T10:01:29;46.42;;;20.15;;
66739;SDS011;53653;52.188;8.602;2022-12-18T10:03:57;42.30;;;19.50;;
66739;SDS011;53653;52.188;8.602;2022-12-18T10:06:42;46.17;;;19.17;;
66739;SDS011;53653;52.188;8.602;2022-12-18T10:09:30;37.23;;;16.60;;
66739;SDS011;53653;52.188;8.602;2022-12-18T10:12:37;41.22;;;17.38;;
66739;SDS011;53653;52.188;8.602;2022-12-18T10:15:15;31.90;;;14.30;;
66739;SDS011;53653;52.188;8.602;2022-12-18T10:24:05;18.83;;;8.10;;
66739;SDS011;53653;52.188;8.602;2022-12-18T10:26:13;20.25;;;7.75;;
66739;SDS011;53653;52.188;8.602;2022-12-18T10:28:39;20.67;;;7.50;;
66739;SDS011;53653;52.188;8.602;2022-12-18T10:31:05;15.73;;;7.60;;
66739;SDS011;53653;52.188;8.602;2022-12-18T10:33:32;14.18;;;6.50;;
66739;SDS011;53653;52.188;8.602;2022-12-18T10:35:59;19.13;;;7.97;;
66739;SDS011;53653;52.188;8.602;2022-12-18T10:38:28;15.75;;;6.97;;
66739;SDS011;53653;52.188;8.602;2022-12-18T10:41:04;14.67;;;5.50;;
66739;SDS011;53653;52.188;8.602;2022-12-18T10:43:37;16.45;;;5.97;;
66739;SDS011;53653;52.188;8.602;2022-12-18T10:51:04;14.52;;;6.18;;
66739;SDS011;53653;52.188;8.602;2022-12-18T10:53:31;16.53;;;5.87;;
66739;SDS011;53653;52.188;8.602;2022-12-18T10:56:03;17.70;;;6.07;;
66739;SDS011;53653;52.188;8.602;2022-12-18T10:58:31;13.05;;;5.32;;
66739;SDS011;53653;52.188;8.602;2022-12-18T11:03:40;13.73;;;6.20;;
66739;SDS011;53653;52.188;8.602;2022-12-18T11:06:15;13.27;;;5.90;;
66739;SDS011;53653;52.188;8.602;2022-12-18T11:08:42;11.38;;;4.88;;
66739;SDS011;53653;52.188;8.602;2022-12-18T11:11:19;17.15;;;6.43;;
66739;SDS011;53653;52.188;8.602;2022-12-18T11:14:05;12.13;;;5.85;;
66739;SDS011;53653;52.188;8.602;2022-12-18T11:16:43;13.55;;;5.40;;
66739;SDS011;53653;52.188;8.602;2022-12-18T11:19:13;12.63;;;5.60;;
66739;SDS011;53653;52.188;8.602;2022-12-18T11:21:46;15.40;;;6.05;;
66739;SDS011;53653;52.188;8.602;2022-12-18T11:24:17;12.45;;;5.40;;
66739;SDS011;53653;52.188;8.602;2022-12-18T11:26:46;15.17;;;5.77;;
66739;SDS011;53653;52.188;8.602;2022-12-18T11:29:19;11.77;;;4.60;;
66739;SDS011;53653;52.188;8.602;2022-12-18T11:31:52;14.90;;;5.57;;
66739;SDS011;53653;52.188;8.602;2022-12-18T11:34:41;12.73;;;5.60;;
66739;SDS011;53653;52.188;8.602;2022-12-18T11:37:11;14.03;;;5.23;;
66739;SDS011;53653;52.188;8.602;2022-12-18T11:39:42;12.57;;;5.55;;
66739;SDS011;53653;52.188;8.602;2022-12-18T11:42:17;14.63;;;6.53;;
66739;SDS011;53653;52.188;8.602;2022-12-18T11:47:32;11.80;;;5.40;;
66739;SDS011;53653;52.188;8.602;2022-12-18T11:50:52;12.97;;;5.50;;
66739;SDS011;53653;52.188;8.602;2022-12-18T11:53:11;11.63;;;4.82;;
66739;SDS011;53653;52.188;8.602;2022-12-18T12:15:34;16.23;;;6.43;;
66739;SDS011;53653;52.188;8.602;2022-12-18T12:26:18;15.30;;;6.13;;
66739;SDS011;53653;52.188;8.602;2022-12-18T12:39:46;12.70;;;5.88;;
66739;SDS011;53653;52.188;8.602;2022-12-18T12:42:17;14.63;;;5.93;;
66739;SDS011;53653;52.188;8.602;2022-12-18T12:45:16;17.23;;;6.07;;
66739;SDS011;53653;52.188;8.602;2022-12-18T12:47:47;14.40;;;6.22;;
66739;SDS011;53653;52.188;8.602;2022-12-18T12:50:16;13.82;;;5.57;;
66739;SDS011;53653;52.188;8.602;2022-12-18T12:52:44;12.55;;;5.05;;
66739;SDS011;53653;52.188;8.602;2022-12-18T12:55:14;13.23;;;6.20;;
66739;SDS011;53653;52.188;8.602;2022-12-18T12:58:46;14.00;;;5.63;;
66739;SDS011;53653;52.188;8.602;2022-12-18T13:04:18;16.55;;;5.88;;
66739;SDS011;53653;52.188;8.602;2022-12-18T13:09:21;12.52;;;5.25;;
66739;SDS011;53653;52.188;8.602;2022-12-18T13:11:46;13.50;;;5.60;;
66739;SDS011;53653;52.188;8.602;2022-12-18T13:17:17;16.92;;;5.82;;
66739;SDS011;53653;52.188;8.602;2022-12-18T13:20:10;11.85;;;5.18;;
66739;SDS011;53653;52.188;8.602;2022-12-18T13:38:33;13.25;;;5.90;;
66739;SDS011;53653;52.188;8.602;2022-12-18T13:45:49;15.03;;;5.83;;
66739;SDS011;53653;52.188;8.602;2022-12-18T13:48:20;11.65;;;5.40;;
66739;SDS011;53653;52.188;8.602;2022-12-18T13:50:57;12.38;;;5.55;;
66739;SDS011;53653;52.188;8.602;2022-12-18T13:53:48;14.80;;;5.43;;
66739;SDS011;53653;52.188;8.602;2022-12-18T13:56:23;14.43;;;5.95;;
66739;SDS011;53653;52.188;8.602;2022-12-18T14:07:04;14.07;;;5.90;;
66739;SDS011;53653;52.188;8.602;2022-12-18T14:09:39;16.58;;;5.50;;
66739;SDS011;53653;52.188;8.602;2022-12-18T14:12:12;16.50;;;5.57;;
66739;SDS011;53653;52.188;8.602;2022-12-18T14:15:00;13.85;;;5.88;;
66739;SDS011;53653;52.188;8.602;2022-12-18T14:17:26;14.73;;;5.63;;
66739;SDS011;53653;52.188;8.602;2022-12-18T14:19:51;14.73;;;5.05;;
66739;SDS011;53653;52.188;8.602;2022-12-18T14:22:26;17.27;;;4.70;;
66739;SDS011;53653;52.188;8.602;2022-12-18T14:27:42;13.70;;;5.35;;
66739;SDS011;53653;52.188;8.602;2022-12-18T14:33:11;19.35;;;4.53;;
66739;SDS011;53653;52.188;8.602;2022-12-18T14:35:41;11.43;;;4.60;;
66739;SDS011;53653;52.188;8.602;2022-12-18T14:43:33;10.90;;;4.13;;
66739;SDS011;53653;52.188;8.602;2022-12-18T14:45:59;11.85;;;5.35;;
66739;SDS011;53653;52.188;8.602;2022-12-18T14:48:59;12.57;;;5.33;;
66739;SDS011;53653;52.188;8.602;2022-12-18T14:51:20;11.77;;;4.78;;
66739;SDS011;53653;52.188;8.602;2022-12-18T14:53:47;12.38;;;5.97;;
66739;SDS011;53653;52.188;8.602;2022-12-18T14:58:50;13.07;;;6.07;;
66739;SDS011;53653;52.188;8.602;2022-12-18T15:01:23;11.75;;;5.03;;
66739;SDS011;53653;52.188;8.602;2022-12-18T15:03:51;11.40;;;5.30;;
66739;SDS011;53653;52.188;8.602;2022-12-18T15:06:31;13.73;;;5.57;;
66739;SDS011;53653;52.188;8.602;2022-12-18T15:09:03;13.18;;;4.78;;
66739;SDS011;53653;52.188;8.602;2022-12-18T15:14:39;12.40;;;4.85;;
66739;SDS011;53653;52.188;8.602;2022-12-18T15:17:01;13.00;;;5.70;;
66739;SDS011;53653;52.188;8.602;2022-12-18T15:19:33;11.83;;;5.47;;
66739;SDS011;53653;52.188;8.602;2022-12-18T15:22:02;15.10;;;5.65;;
66739;SDS011;53653;52.188;8.602;2022-12-18T15:24:29;14.90;;;5.97;;
66739;SDS011;53653;52.188;8.602;2022-12-18T15:26:57;14.55;;;5.35;;
66739;SDS011;53653;52.188;8.602;2022-12-18T15:29:23;14.45;;;5.78;;
66739;SDS011;53653;52.188;8.602;2022-12-18T15:32:01;16.50;;;5.47;;
66739;SDS011;53653;52.188;8.602;2022-12-18T15:34:40;10.35;;;4.18;;
66739;SDS011;53653;52.188;8.602;2022-12-18T15:37:07;11.70;;;5.53;;
66739;SDS011;53653;52.188;8.602;2022-12-18T15:39:33;10.05;;;4.00;;
66739;SDS011;53653;52.188;8.602;2022-12-18T15:42:00;15.32;;;5.78;;
66739;SDS011;53653;52.188;8.602;2022-12-18T15:44:44;11.87;;;5.40;;
66739;SDS011;53653;52.188;8.602;2022-12-18T15:47:11;11.90;;;5.70;;
66739;SDS011;53653;52.188;8.602;2022-12-18T15:49:38;10.60;;;4.87;;
66739;SDS011;53653;52.188;8.602;2022-12-18T15:52:04;12.10;;;4.78;;
66739;SDS011;53653;52.188;8.602;2022-12-18T15:54:30;10.73;;;4.85;;
66739;SDS011;53653;52.188;8.602;2022-12-18T15:57:14;17.27;;;5.95;;
66739;SDS011;53653;52.188;8.602;2022-12-18T15:59:53;10.90;;;5.30;;
66739;SDS011;53653;52.188;8.602;2022-12-18T16:02:22;13.30;;;5.67;;
66739;SDS011;53653;52.188;8.602;2022-12-18T16:04:48;15.50;;;5.75;;
66739;SDS011;53653;52.188;8.602;2022-12-18T16:07:14;15.63;;;5.90;;
66739;SDS011;53653;52.188;8.602;2022-12-18T16:09:40;13.07;;;5.13;;
66739;SDS011;53653;52.188;8.602;2022-12-18T16:12:10;13.30;;;6.18;;
66739;SDS011;53653;52.188;8.602;2022-12-18T16:14:41;12.65;;;5.28;;
66739;SDS011;53653;52.188;8.602;2022-12-18T16:17:09;20.90;;;7.20;;
66739;SDS011;53653;52.188;8.602;2022-12-18T16:19:35;16.05;;;6.20;;
66739;SDS011;53653;52.188;8.602;2022-12-18T16:22:04;16.27;;;7.53;;
66739;SDS011;53653;52.188;8.602;2022-12-18T16:24:31;12.40;;;4.80;;
66739;SDS011;53653;52.188;8.602;2022-12-18T16:26:58;17.33;;;7.05;;
66739;SDS011;53653;52.188;8.602;2022-12-18T16:29:25;14.50;;;5.65;;
66739;SDS011;53653;52.188;8.602;2022-12-18T16:31:58;15.07;;;5.97;;
66739;SDS011;53653;52.188;8.602;2022-12-18T16:34:26;18.03;;;6.80;;
66739;SDS011;53653;52.188;8.602;2022-12-18T16:37:12;12.48;;;5.53;;
66739;SDS011;53653;52.188;8.602;2022-12-18T16:39:40;11.85;;;5.72;;
66739;SDS011;53653;52.188;8.602;2022-12-18T16:42:08;13.27;;;5.78;;
66739;SDS011;53653;52.188;8.602;2022-12-18T16:44:34;12.07;;;5.72;;
66739;SDS011;53653;52.188;8.602;2022-12-18T16:47:00;19.03;;;7.60;;
66739;SDS011;53653;52.188;8.602;2022-12-18T16:49:27;14.65;;;6.35;;
66739;SDS011;53653;52.188;8.602;2022-12-18T16:51:53;18.75;;;7.35;;
66739;SDS011;53653;52.188;8.602;2022-12-18T16:54:19;18.80;;;6.10;;
66739;SDS011;53653;52.188;8.602;2022-12-18T16:56:45;16.50;;;6.75;;
66739;SDS011;53653;52.188;8.602;2022-12-18T16:59:13;15.20;;;6.03;;
66739;SDS011;53653;52.188;8.602;2022-12-18T17:01:39;15.35;;;6.38;;